Latest Weather Observations for St George

IDQ60801

Issued at 5:05 pm EST Sunday 26 October 2014 (issued every 30 minutes, with the page automatically refreshed every 10 minutes)

About weather observations | Map of weather stations | Latest weather observations for QLD | Other Formats
Station Details ID: 043109 Name: ST GEORGE AIRPORT Lat: -28.05 Lon: 148.59 Height: 198.5 m
Data from the previous 72 hours. | See also: Recent months at St George
Date/Time
EST
Temp
°C
App
Temp
°C
Dew
Point
Rel
Hum
%
Delta-T
°C
Wind Press
QNH
hPa
Press
MSL
hPa
Rain
since 9 am
mm
Dir
 
Spd
km/h
Gust
km/h
Spd
kts
Gust
kts
26/05:00pm 38.8 33.1 0.3 9 19.8 SW 20 26 11 14 1008.7 - 0.0
26/04:30pm 39.1 32.6 0.5 9 19.9 SW 24 33 13 18 1008.6 - 0.0
26/04:00pm 40.3 35.3 1.4 9 20.4 WSW 17 26 9 14 1008.5 - 0.0
26/03:30pm 38.5 33.1 1.5 10 19.3 W 19 24 10 13 1008.6 - 0.0
26/03:00pm 39.7 35.0 0.9 9 20.2 NW 15 19 8 10 1008.7 1008.0 0.0
26/02:30pm 39.6 34.5 0.9 9 20.1 WSW 17 24 9 13 1009.1 - 0.0
26/02:00pm 40.1 33.7 1.2 9 20.3 W 24 28 13 15 1009.6 - 0.0
26/01:30pm 39.9 34.2 -0.5 8 20.6 NW 19 33 10 18 1010.1 - 0.0
26/01:00pm 40.0 35.0 1.1 9 20.3 NW 17 30 9 16 1010.7 - 0.0
26/12:30pm 40.5 33.4 1.5 9 20.5 W 28 35 15 19 1011.3 - 0.0
26/12:00pm 39.7 34.6 0.9 9 20.2 W 17 26 9 14 1011.8 1011.0 0.0
26/11:30am 39.8 34.4 2.5 10 19.9 SW 20 32 11 17 1012.1 - 0.0
26/11:00am 37.7 34.1 0.9 10 18.9 N 9 35 5 19 1012.7 - 0.0
26/10:30am 37.4 33.1 0.7 10 18.8 NW 13 22 7 12 1013.2 - 0.0
26/10:00am 37.2 32.3 1.8 11 18.4 NNW 17 22 9 12 1013.6 - 0.0
26/09:30am 35.9 30.8 0.9 11 17.8 NNW 17 24 9 13 1014.0 - 0.0
26/09:00am 34.4 29.3 0.9 12 16.9 NNW 17 24 9 13 1014.1 1013.4 0.0
26/08:30am 32.8 27.9 1.8 14 15.7 NW 17 20 9 11 1014.3 - 0.0
26/08:00am 30.2 26.3 3.3 18 13.7 NNW 13 17 7 9 1014.5 - 0.0
26/07:30am 28.3 24.1 3.9 21 12.4 N 15 19 8 10 1014.3 - 0.0
26/07:00am 25.9 21.9 4.9 26 10.7 NNE 15 19 8 10 1014.1 - 0.0
26/06:30am 24.0 20.4 4.9 29 9.6 NNE 13 26 7 14 1013.8 - 0.0
26/06:00am 20.5 18.7 7.2 42 6.9 N 6 7 3 4 1013.7 1013.0 0.0
26/05:30am 18.9 16.7 5.4 41 6.7 N 6 9 3 5 1013.6 - 0.0
26/05:00am 18.9 16.8 6.7 45 6.2 W 7 11 4 6 1013.4 - 0.0
26/04:30am 18.9 17.3 8.0 49 5.6 W 6 7 3 4 1012.9 - 0.0
26/04:00am 18.7 17.9 6.5 45 6.1 CALM 0 0 0 0 1012.8 - 0.0
26/03:30am 19.2 17.2 6.3 43 6.5 W 6 6 3 3 1012.6 - 0.0
26/03:00am 19.2 17.4 5.6 41 6.7 N 4 6 2 3 1012.6 1011.8 0.0
26/02:30am 19.5 16.9 6.3 42 6.6 NE 9 11 5 6 1012.7 - 0.0
26/02:00am 20.1 18.7 5.4 38 7.3 NNE 2 6 1 3 1012.9 - 0.0
26/01:30am 20.8 18.6 6.4 39 7.3 NNE 7 9 4 5 1013.2 - 0.0
26/01:00am 21.1 20.2 6.2 38 7.6 CALM 0 0 0 0 1013.7 - 0.0
26/12:30am 21.6 19.8 5.5 35 8.1 N 4 7 2 4 1014.1 - 0.0
26/12:00am 22.3 21.3 5.7 34 8.4 NNW 0 0 0 0 1014.4 1013.7 0.0
 
Date/Time
EST
Temp
°C
App
Temp
°C
Dew
Point
Rel
Hum
%
Delta-T
°C
Wind Press
QNH
hPa
Press
MSL
hPa
Rain
since 9 am
mm
Dir
 
Spd
km/h
Gust
km/h
Spd
kts
Gust
kts
25/11:30pm 22.9 20.9 4.4 30 9.2 N 4 6 2 3 1014.6 - 0.0
25/11:00pm 25.1 23.1 4.3 26 10.5 WNW 4 6 2 3 1014.8 - 0.0
25/10:30pm 24.9 21.8 5.7 29 9.9 W 11 17 6 9 1014.9 - 0.0
25/10:00pm 24.0 21.6 4.4 28 9.8 N 6 7 3 4 1014.7 - 0.0
25/09:30pm 24.2 21.7 4.0 27 10.0 ENE 6 7 3 4 1014.7 - 0.0
25/09:00pm 25.1 23.0 3.7 25 10.6 N 4 6 2 3 1014.7 1014.0 0.0
25/08:30pm 25.8 23.3 3.7 24 11.0 ENE 6 9 3 5 1014.6 - 0.0
25/08:00pm 27.2 25.7 3.0 21 12.1 CALM 0 0 0 0 1014.5 - 0.0
25/07:30pm 28.5 27.1 3.4 20 12.7 CALM 0 0 0 0 1014.3 - 0.0
25/07:00pm 29.5 27.7 1.1 16 13.9 CALM 0 0 0 0 1014.0 - 0.0
25/06:30pm 32.6 29.9 0.6 13 15.9 S 4 7 2 4 1013.7 - 0.0
25/06:00pm 35.0 31.3 0.2 11 17.4 S 9 13 5 7 1013.4 1012.7 0.0
25/05:30pm 36.6 31.8 0.1 10 18.4 S 15 19 8 10 1013.2 - 0.0
25/05:00pm 37.2 31.7 0.5 10 18.7 S 19 26 10 14 1013.0 - 0.0
25/04:30pm 37.1 32.3 0.4 10 18.6 SSW 15 22 8 12 1013.0 - 0.0
25/04:00pm 37.8 32.1 -0.5 9 19.3 S 19 32 10 17 1012.9 - 0.0
25/03:30pm 38.4 32.6 0.0 9 19.5 SSE 20 26 11 14 1013.0 - 0.0
25/03:00pm 38.3 32.9 1.3 10 19.2 W 19 32 10 17 1013.2 1012.5 0.0
25/02:30pm 37.3 32.9 0.6 10 18.7 SSW 13 24 7 13 1013.5 - 0.0
25/02:00pm 38.1 32.5 1.2 10 19.1 S 20 28 11 15 1013.9 - 0.0
25/01:30pm 37.9 33.4 2.4 11 18.7 WSW 15 26 8 14 1014.4 - 0.0
25/01:00pm 37.4 34.0 2.0 11 18.5 ESE 9 30 5 16 1014.8 - 0.0
25/12:30pm 37.3 33.5 1.9 11 18.4 SE 11 19 6 10 1015.3 - 0.0
25/12:00pm 37.4 34.4 2.0 11 18.4 WNW 7 24 4 13 1015.8 1015.1 0.0
25/11:30am 36.6 32.6 2.6 12 17.8 SSW 13 22 7 12 1016.3 - 0.0
25/11:00am 35.7 31.7 3.0 13 17.2 SSW 13 19 7 10 1016.8 - 0.0
25/10:30am 35.9 31.0 4.2 14 17.0 W 19 32 10 17 1017.3 - 0.0
25/10:00am 34.5 30.0 5.9 17 15.6 W 19 28 10 15 1017.7 - 0.0
25/09:30am 33.2 28.2 6.5 19 14.6 WNW 22 30 12 16 1017.9 - 0.0
25/09:00am 31.8 26.9 6.8 21 13.6 NW 22 32 12 17 1018.0 1017.3 0.0
25/08:30am 30.2 24.5 6.8 23 12.7 NW 26 33 14 18 1018.0 - 0.0
25/08:00am 28.2 22.8 6.3 25 11.6 NNW 24 35 13 19 1018.1 - 0.0
25/07:30am 26.7 22.3 7.2 29 10.4 NNW 20 26 11 14 1017.9 - 0.0
25/07:00am 24.8 20.6 7.4 33 9.2 N 19 30 10 16 1017.6 - 0.0
25/06:30am 23.9 19.4 7.1 34 8.8 N 20 28 11 15 1017.3 - 0.0
25/06:00am 22.7 18.4 6.9 36 8.2 N 19 24 10 13 1017.2 1016.4 0.0
25/05:30am 22.9 18.2 6.2 34 8.6 N 20 26 11 14 1016.6 - 0.0
25/05:00am 23.0 18.6 6.7 35 8.5 N 19 22 10 12 1016.2 - 0.0
25/04:30am 23.5 19.8 6.3 33 8.9 N 15 20 8 11 1016.1 - 0.0
25/04:00am 23.3 20.0 6.6 34 8.7 N 13 17 7 9 1016.1 - 0.0
25/03:30am 23.7 20.4 6.5 33 8.9 N 13 19 7 10 1015.8 - 0.0
25/03:00am 24.2 20.5 6.5 32 9.2 N 15 19 8 10 1015.5 1014.8 0.0
25/02:30am 24.3 21.7 6.1 31 9.4 N 9 15 5 8 1015.5 - 0.0
25/02:00am 25.1 21.9 5.3 28 10.1 N 11 13 6 7 1015.5 - 0.0
25/01:30am 25.7 22.9 5.3 27 10.5 N 9 13 5 7 1015.7 - 0.0
25/01:00am 26.2 23.1 5.7 27 10.6 N 11 13 6 7 1016.1 - 0.0
25/12:30am 27.3 23.8 5.6 25 11.3 N 13 17 7 9 1016.5 - 0.0
25/12:00am 28.3 25.9 5.2 23 12.0 W 7 11 4 6 1017.1 1016.3 0.0
 
Date/Time
EST
Temp
°C
App
Temp
°C
Dew
Point
Rel
Hum
%
Delta-T
°C
Wind Press
QNH
hPa
Press
MSL
hPa
Rain
since 9 am
mm
Dir
 
Spd
km/h
Gust
km/h
Spd
kts
Gust
kts
24/11:30pm 28.2 22.7 5.7 24 11.8 SW 24 33 13 18 1017.9 - 0.0
24/11:00pm 28.0 24.7 6.2 25 11.5 N 13 17 7 9 1016.6 - 0.0
24/10:30pm 28.0 24.2 5.6 24 11.7 N 15 19 8 10 1016.2 - 0.0
24/10:00pm 28.8 24.6 5.6 23 12.2 N 17 20 9 11 1016.1 - 0.0
24/09:30pm 29.4 25.5 5.5 22 12.6 N 15 19 8 10 1016.1 - 0.0
24/09:00pm 30.2 25.8 4.8 20 13.3 N 17 20 9 11 1016.0 1015.3 0.0
24/08:30pm 29.9 26.2 4.5 20 13.2 N 13 15 7 8 1015.9 - 0.0
24/08:00pm 28.9 26.3 6.3 24 12.0 NNE 9 11 5 6 1015.8 - 0.0
24/07:30pm 29.3 26.6 5.4 22 12.6 NNE 9 11 5 6 1015.5 - 0.0
24/07:00pm 29.7 27.3 5.1 21 12.9 NNE 7 9 4 5 1015.2 - 0.0
24/06:30pm 31.9 28.8 3.8 17 14.6 NNE 9 13 5 7 1015.0 - 0.0
24/06:00pm 33.6 30.5 3.4 15 15.8 NNE 9 11 5 6 1014.8 1014.1 0.0
24/05:30pm 34.9 31.2 2.4 13 16.8 NNW 11 15 6 8 1014.7 - 0.0
24/05:00pm 35.7 32.5 3.0 13 17.2 N 9 11 5 6 1014.3 - 0.0
24/04:30pm 35.8 31.3 2.0 12 17.5 N 15 22 8 12 1014.3 - 0.0
24/04:00pm 35.9 33.1 2.1 12 17.5 SSE 6 11 3 6 1014.3 - 0.0
24/03:30pm 35.4 31.4 2.8 13 17.0 N 13 20 7 11 1014.4 - 0.0
24/03:00pm 36.7 33.4 2.7 12 17.8 NNE 9 20 5 11 1014.6 1013.9 0.0
24/02:30pm 36.8 33.9 2.8 12 17.9 N 7 17 4 9 1015.1 - 0.0
24/02:00pm 36.2 33.4 3.4 13 17.4 SW 7 13 4 7 1015.6 - 0.0
24/01:30pm 35.6 32.0 3.0 13 17.1 SE 11 19 6 10 1016.0 - 0.0
24/01:00pm 35.7 32.5 3.0 13 17.2 S 9 20 5 11 1016.7 - 0.0
24/12:30pm 35.3 32.2 3.8 14 16.7 SSE 9 19 5 10 1017.2 - 0.0
24/12:00pm 34.7 30.4 3.3 14 16.4 N 15 24 8 13 1017.7 1017.0 0.0
24/11:30am 34.1 30.9 2.8 14 16.2 WSW 9 22 5 12 1018.2 - 0.0
24/11:00am 33.7 30.0 2.5 14 16.1 NNW 11 20 6 11 1018.6 - 0.0
24/10:30am 32.8 27.8 3.7 16 15.2 NW 19 24 10 13 1019.0 - 0.0
24/10:00am 32.3 26.8 4.2 17 14.7 WNW 22 26 12 14 1019.3 - 0.0
24/09:30am 30.7 26.2 4.4 19 13.7 NNW 17 24 9 13 1019.5 - 0.0
24/09:00am 29.5 25.1 4.9 21 12.8 NNW 17 26 9 14 1019.8 1019.1 0.0
24/08:30am 28.3 24.1 5.8 24 11.9 NNW 17 24 9 13 1019.6 - 0.0
24/08:00am 26.6 22.6 6.6 28 10.6 N 17 24 9 13 1019.5 - 0.0
24/07:30am 24.5 19.6 5.3 29 9.8 N 20 28 11 15 1019.4 - 0.0
24/07:00am 23.3 19.2 6.1 33 8.8 N 17 24 9 13 1019.2 - 0.0
24/06:30am 21.8 17.8 6.5 37 7.8 NNE 17 24 9 13 1019.0 - 0.0
24/06:00am 20.7 17.2 7.0 41 7.0 N 15 22 8 12 1018.8 1018.1 0.0
24/05:30am 19.7 17.0 7.4 45 6.3 N 11 17 6 9 1018.4 - 0.0
24/05:00am 18.9 16.6 7.4 47 5.9 NNE 9 13 5 7 1018.0 - 0.0
24/04:30am 19.2 16.6 7.6 47 6.0 NNE 11 13 6 7 1017.6 - 0.0
24/04:00am 19.0 16.6 7.1 46 6.1 NNE 9 11 5 6 1017.6 - 0.0
24/03:30am 19.5 17.2 7.3 45 6.3 N 9 11 5 6 1017.4 - 0.0
24/03:00am 19.6 17.7 7.4 45 6.3 NNE 7 9 4 5 1017.5 1016.8 0.0
24/02:30am 19.8 17.7 6.5 42 6.7 NNE 7 7 4 4 1017.5 - 0.0
24/02:00am 20.2 18.0 6.2 40 7.1 NNE 7 9 4 5 1017.5 - 0.0
24/01:30am 20.9 18.7 6.1 38 7.5 N 7 9 4 5 1017.5 - 0.0
24/01:00am 21.0 18.5 6.5 39 7.4 NNE 9 11 5 6 1017.8 - 0.0
24/12:30am 22.2 19.3 6.4 36 8.1 N 11 13 6 7 1018.0 - 0.0
24/12:00am 21.5 19.0 6.6 38 7.6 NNE 9 11 5 6 1018.2 1017.5 0.0
 
Date/Time
EST
Temp
°C
App
Temp
°C
Dew
Point
Rel
Hum
%
Delta-T
°C
Wind Press
QNH
hPa
Press
MSL
hPa
Rain
since 9 am
mm
Dir
 
Spd
km/h
Gust
km/h
Spd
kts
Gust
kts
23/11:30pm 21.9 19.9 7.3 39 7.6 N 7 9 4 5 1018.2 - 0.0
23/11:00pm 22.2 19.8 6.8 37 8.0 NNE 9 13 5 7 1018.2 - 0.0
23/10:30pm 22.2 20.3 6.8 37 8.0 N 6 9 3 5 1018.2 - 0.0
23/10:00pm 23.1 20.6 4.6 30 9.2 NNE 7 9 4 5 1018.1 - 0.0
23/09:30pm 24.6 21.9 5.4 29 9.8 NNE 9 11 5 6 1018.0 - 0.0
23/09:00pm 24.5 21.7 5.3 29 9.8 NE 9 11 5 6 1017.9 1017.2 0.0
23/08:30pm 24.8 22.5 5.6 29 9.9 NE 7 9 4 5 1017.6 - 0.0
23/08:00pm 25.7 23.3 5.3 27 10.5 NE 7 9 4 5 1017.2 - 0.0
23/07:30pm 26.1 23.7 5.1 26 10.8 NE 7 9 4 5 1017.0 - 0.0
23/07:00pm 27.3 24.7 4.4 23 11.7 NE 7 9 4 5 1016.7 - 0.0
23/06:30pm 29.6 26.6 4.3 20 13.1 ENE 9 13 5 7 1016.3 - 0.0
23/06:00pm 31.1 27.7 4.0 18 14.1 E 11 15 6 8 1016.0 1015.3 0.0
23/05:30pm 31.9 29.2 3.8 17 14.6 E 7 13 4 7 1015.9 - 0.0

Other Formats:

Comma delimited format used in spreadsheet applications
http://www.bom.gov.au/fwo/IDQ60801/IDQ60801.94517.axf

JavaScript Object Notation format (JSON) in row-major order
http://www.bom.gov.au/fwo/IDQ60801/IDQ60801.94517.json